sensor_id;sensor_type;location;lat;lon;timestamp;pressure;altitude;pressure_sealevel;temperature
50206;BMP280;36098;48.390;10.856;2023-04-03T00:01:15;96646.34;;;22.96
50206;BMP280;36098;48.390;10.856;2023-04-03T00:03:41;96644.22;;;22.93
50206;BMP280;36098;48.390;10.856;2023-04-03T00:06:06;96648.72;;;22.92
50206;BMP280;36098;48.390;10.856;2023-04-03T00:08:33;96642.91;;;22.90
50206;BMP280;36098;48.390;10.856;2023-04-03T00:10:58;96645.25;;;22.82
50206;BMP280;36098;48.390;10.856;2023-04-03T00:13:24;96642.81;;;22.75
50206;BMP280;36098;48.390;10.856;2023-04-03T00:15:50;96645.78;;;22.84
50206;BMP280;36098;48.390;10.856;2023-04-03T00:18:15;96642.09;;;22.85
50206;BMP280;36098;48.390;10.856;2023-04-03T00:20:40;96638.13;;;22.82
50206;BMP280;36098;48.390;10.856;2023-04-03T00:23:05;96644.75;;;22.90
50206;BMP280;36098;48.390;10.856;2023-04-03T00:25:31;96636.75;;;22.75
50206;BMP280;36098;48.390;10.856;2023-04-03T00:27:56;96635.75;;;22.81
50206;BMP280;36098;48.390;10.856;2023-04-03T00:30:21;96629.69;;;22.85
50206;BMP280;36098;48.390;10.856;2023-04-03T00:32:48;96638.63;;;22.79
50206;BMP280;36098;48.390;10.856;2023-04-03T00:35:13;96638.91;;;22.83
50206;BMP280;36098;48.390;10.856;2023-04-03T00:37:40;96636.53;;;22.81
50206;BMP280;36098;48.390;10.856;2023-04-03T00:40:06;96641.47;;;22.73
50206;BMP280;36098;48.390;10.856;2023-04-03T00:42:31;96643.06;;;22.74
50206;BMP280;36098;48.390;10.856;2023-04-03T00:47:21;96633.84;;;22.71
50206;BMP280;36098;48.390;10.856;2023-04-03T00:49:47;96637.78;;;22.74
50206;BMP280;36098;48.390;10.856;2023-04-03T00:52:15;96628.81;;;22.70
50206;BMP280;36098;48.390;10.856;2023-04-03T00:54:41;96631.44;;;22.65
50206;BMP280;36098;48.390;10.856;2023-04-03T00:57:07;96634.91;;;22.70
50206;BMP280;36098;48.390;10.856;2023-04-03T00:59:34;96637.72;;;22.59
50206;BMP280;36098;48.390;10.856;2023-04-03T01:02:00;96629.00;;;22.58
50206;BMP280;36098;48.390;10.856;2023-04-03T01:04:29;96635.66;;;22.66
50206;BMP280;36098;48.390;10.856;2023-04-03T01:06:56;96629.84;;;22.64
50206;BMP280;36098;48.390;10.856;2023-04-03T01:09:22;96629.66;;;22.75
50206;BMP280;36098;48.390;10.856;2023-04-03T01:11:47;96625.44;;;22.74
50206;BMP280;36098;48.390;10.856;2023-04-03T01:14:12;96625.88;;;22.61
50206;BMP280;36098;48.390;10.856;2023-04-03T01:16:38;96623.50;;;22.60
50206;BMP280;36098;48.390;10.856;2023-04-03T01:19:04;96628.81;;;22.65
50206;BMP280;36098;48.390;10.856;2023-04-03T01:24:31;96629.84;;;22.64
50206;BMP280;36098;48.390;10.856;2023-04-03T01:26:58;96626.13;;;22.60
50206;BMP280;36098;48.390;10.856;2023-04-03T01:29:23;96634.06;;;22.65
50206;BMP280;36098;48.390;10.856;2023-04-03T01:31:52;96631.88;;;22.57
50206;BMP280;36098;48.390;10.856;2023-04-03T01:34:18;96633.44;;;22.53
50206;BMP280;36098;48.390;10.856;2023-04-03T01:36:44;96631.66;;;22.58
50206;BMP280;36098;48.390;10.856;2023-04-03T01:39:09;96630.28;;;22.51
50206;BMP280;36098;48.390;10.856;2023-04-03T01:41:34;96630.06;;;22.57
50206;BMP280;36098;48.390;10.856;2023-04-03T01:44:00;96636.81;;;22.48
50206;BMP280;36098;48.390;10.856;2023-04-03T01:46:25;96633.94;;;22.50
50206;BMP280;36098;48.390;10.856;2023-04-03T01:48:50;96633.94;;;22.50
50206;BMP280;36098;48.390;10.856;2023-04-03T01:51:16;96633.41;;;22.48
50206;BMP280;36098;48.390;10.856;2023-04-03T01:53:41;96632.88;;;22.46
50206;BMP280;36098;48.390;10.856;2023-04-03T01:56:07;96629.19;;;22.47
50206;BMP280;36098;48.390;10.856;2023-04-03T01:58:32;96624.22;;;22.50
50206;BMP280;36098;48.390;10.856;2023-04-03T02:00:57;96622.38;;;22.51
50206;BMP280;36098;48.390;10.856;2023-04-03T02:03:22;96634.69;;;22.45
50206;BMP280;36098;48.390;10.856;2023-04-03T02:05:48;96623.63;;;22.43
50206;BMP280;36098;48.390;10.856;2023-04-03T02:08:14;96628.38;;;22.46
50206;BMP280;36098;48.390;10.856;2023-04-03T02:10:40;96625.22;;;22.44
50206;BMP280;36098;48.390;10.856;2023-04-03T02:13:05;96629.19;;;22.47
50206;BMP280;36098;48.390;10.856;2023-04-03T02:15:30;96627.06;;;22.44
50206;BMP280;36098;48.390;10.856;2023-04-03T02:17:55;96629.22;;;22.52
50206;BMP280;36098;48.390;10.856;2023-04-03T02:20:20;96628.19;;;22.58
50206;BMP280;36098;48.390;10.856;2023-04-03T02:22:46;96620.25;;;22.48
50206;BMP280;36098;48.390;10.856;2023-04-03T02:25:11;96631.06;;;22.51
50206;BMP280;36098;48.390;10.856;2023-04-03T02:27:37;96625.00;;;22.51
50206;BMP280;36098;48.390;10.856;2023-04-03T02:30:03;96629.41;;;22.40
50206;BMP280;36098;48.390;10.856;2023-04-03T02:32:28;96625.47;;;22.43
50206;BMP280;36098;48.390;10.856;2023-04-03T02:34:53;96625.50;;;22.48
50206;BMP280;36098;48.390;10.856;2023-04-03T02:37:18;96628.88;;;22.43
50206;BMP280;36098;48.390;10.856;2023-04-03T02:39:44;96628.28;;;22.36
50206;BMP280;36098;48.390;10.856;2023-04-03T02:42:09;96622.00;;;22.37
50206;BMP280;36098;48.390;10.856;2023-04-03T02:44:34;96620.41;;;22.36
50206;BMP280;36098;48.390;10.856;2023-04-03T02:47:00;96625.19;;;22.39
50206;BMP280;36098;48.390;10.856;2023-04-03T02:49:25;96623.91;;;22.42
50206;BMP280;36098;48.390;10.856;2023-04-03T02:51:50;96619.94;;;22.44
50206;BMP280;36098;48.390;10.856;2023-04-03T02:54:16;96626.53;;;22.42
50206;BMP280;36098;48.390;10.856;2023-04-03T02:56:41;96626.72;;;22.35
50206;BMP280;36098;48.390;10.856;2023-04-03T02:59:06;96632.50;;;22.37
50206;BMP280;36098;48.390;10.856;2023-04-03T03:01:32;96623.78;;;22.32
50206;BMP280;36098;48.390;10.856;2023-04-03T03:03:58;96626.72;;;22.35
50206;BMP280;36098;48.390;10.856;2023-04-03T03:06:23;96636.44;;;22.35
50206;BMP280;36098;48.390;10.856;2023-04-03T03:08:48;96631.97;;;22.35
50206;BMP280;36098;48.390;10.856;2023-04-03T03:11:14;96628.06;;;22.38
50206;BMP280;36098;48.390;10.856;2023-04-03T03:13:39;96632.75;;;22.36
50206;BMP280;36098;48.390;10.856;2023-04-03T03:16:04;96628.63;;;22.40
50206;BMP280;36098;48.390;10.856;2023-04-03T03:18:30;96631.88;;;22.25
50206;BMP280;36098;48.390;10.856;2023-04-03T03:20:56;96625.91;;;22.35
50206;BMP280;36098;48.390;10.856;2023-04-03T03:23:22;96627.72;;;22.29
50206;BMP280;36098;48.390;10.856;2023-04-03T03:25:47;96620.16;;;22.38
50206;BMP280;36098;48.390;10.856;2023-04-03T03:28:12;96627.44;;;22.31
50206;BMP280;36098;48.390;10.856;2023-04-03T03:30:37;96626.91;;;22.29
50206;BMP280;36098;48.390;10.856;2023-04-03T03:33:03;96625.44;;;22.38
50206;BMP280;36098;48.390;10.856;2023-04-03T03:35:28;96624.81;;;22.31
50206;BMP280;36098;48.390;10.856;2023-04-03T03:37:53;96626.91;;;22.29
50206;BMP280;36098;48.390;10.856;2023-04-03T03:40:18;96622.16;;;22.26
50206;BMP280;36098;48.390;10.856;2023-04-03T03:42:44;96619.75;;;22.24
50206;BMP280;36098;48.390;10.856;2023-04-03T03:45:09;96623.16;;;22.20
50206;BMP280;36098;48.390;10.856;2023-04-03T03:47:34;96621.56;;;22.19
50206;BMP280;36098;48.390;10.856;2023-04-03T03:50:00;96628.19;;;22.26
50206;BMP280;36098;48.390;10.856;2023-04-03T03:52:26;96621.66;;;22.29
50206;BMP280;36098;48.390;10.856;2023-04-03T03:54:51;96621.88;;;22.27
50206;BMP280;36098;48.390;10.856;2023-04-03T03:57:16;96623.91;;;22.15
50206;BMP280;36098;48.390;10.856;2023-04-03T03:59:41;96627.03;;;22.12
50206;BMP280;36098;48.390;10.856;2023-04-03T04:02:07;96623.16;;;22.20
50206;BMP280;36098;48.390;10.856;2023-04-03T04:04:33;96629.00;;;22.27
50206;BMP280;36098;48.390;10.856;2023-04-03T04:06:58;96627.84;;;22.18
50206;BMP280;36098;48.390;10.856;2023-04-03T04:09:25;96631.25;;;22.13
50206;BMP280;36098;48.390;10.856;2023-04-03T04:11:50;96633.78;;;22.03
50206;BMP280;36098;48.390;10.856;2023-04-03T04:14:15;96627.91;;;21.91
50206;BMP280;36098;48.390;10.856;2023-04-03T04:16:41;96637.03;;;21.84
50206;BMP280;36098;48.390;10.856;2023-04-03T04:19:06;96639.16;;;21.87
50206;BMP280;36098;48.390;10.856;2023-04-03T04:21:31;96636.63;;;21.97
50206;BMP280;36098;48.390;10.856;2023-04-03T04:23:56;96640.44;;;22.11
50206;BMP280;36098;48.390;10.856;2023-04-03T04:26:21;96642.94;;;22.27
50206;BMP280;36098;48.390;10.856;2023-04-03T04:28:47;96636.00;;;22.43
50206;BMP280;36098;48.390;10.856;2023-04-03T04:31:12;96642.69;;;22.55
50206;BMP280;36098;48.390;10.856;2023-04-03T04:33:37;96642.75;;;22.65
50206;BMP280;36098;48.390;10.856;2023-04-03T04:36:02;96635.16;;;22.74
50206;BMP280;36098;48.390;10.856;2023-04-03T04:38:27;96644.22;;;22.88
50206;BMP280;36098;48.390;10.856;2023-04-03T04:40:53;96642.66;;;22.92
50206;BMP280;36098;48.390;10.856;2023-04-03T04:43:18;96640.09;;;23.02
50206;BMP280;36098;48.390;10.856;2023-04-03T04:45:43;96635.38;;;23.09
50206;BMP280;36098;48.390;10.856;2023-04-03T04:48:08;96642.28;;;23.15
50206;BMP280;36098;48.390;10.856;2023-04-03T04:50:33;96645.72;;;23.20
50206;BMP280;36098;48.390;10.856;2023-04-03T04:52:59;96644.22;;;23.29
50206;BMP280;36098;48.390;10.856;2023-04-03T04:55:24;96640.78;;;23.33
50206;BMP280;36098;48.390;10.856;2023-04-03T04:57:49;96631.34;;;23.37
50206;BMP280;36098;48.390;10.856;2023-04-03T05:00:15;96640.84;;;23.43
50206;BMP280;36098;48.390;10.856;2023-04-03T05:02:40;96635.56;;;23.48
50206;BMP280;36098;48.390;10.856;2023-04-03T05:05:05;96634.28;;;23.51
50206;BMP280;36098;48.390;10.856;2023-04-03T05:07:31;96643.25;;;23.55
50206;BMP280;36098;48.390;10.856;2023-04-03T05:09:56;96639.56;;;23.61
50206;BMP280;36098;48.390;10.856;2023-04-03T05:12:21;96642.22;;;23.66
50206;BMP280;36098;48.390;10.856;2023-04-03T05:14:47;96634.59;;;23.69
50206;BMP280;36098;48.390;10.856;2023-04-03T05:17:12;96633.53;;;23.75
50206;BMP280;36098;48.390;10.856;2023-04-03T05:19:37;96638.31;;;23.78
50206;BMP280;36098;48.390;10.856;2023-04-03T05:22:02;96644.69;;;23.82
50206;BMP280;36098;48.390;10.856;2023-04-03T05:24:27;96653.66;;;23.91
50206;BMP280;36098;48.390;10.856;2023-04-03T05:26:53;96646.03;;;24.00
50206;BMP280;36098;48.390;10.856;2023-04-03T05:29:18;96642.09;;;24.07
50206;BMP280;36098;48.390;10.856;2023-04-03T05:31:43;96646.06;;;24.10
50206;BMP280;36098;48.390;10.856;2023-04-03T05:34:08;96636.84;;;24.17
50206;BMP280;36098;48.390;10.856;2023-04-03T05:36:34;96649.75;;;24.24
50206;BMP280;36098;48.390;10.856;2023-04-03T05:38:59;96646.31;;;24.23
50206;BMP280;36098;48.390;10.856;2023-04-03T05:41:24;96657.41;;;24.20
50206;BMP280;36098;48.390;10.856;2023-04-03T05:43:49;96642.88;;;24.18
50206;BMP280;36098;48.390;10.856;2023-04-03T05:46:16;96642.59;;;24.14
50206;BMP280;36098;48.390;10.856;2023-04-03T05:48:42;96653.19;;;24.19
50206;BMP280;36098;48.390;10.856;2023-04-03T05:51:09;96652.13;;;24.25
50206;BMP280;36098;48.390;10.856;2023-04-03T05:53:38;96653.97;;;24.25
50206;BMP280;36098;48.390;10.856;2023-04-03T05:56:03;96657.66;;;24.24
50206;BMP280;36098;48.390;10.856;2023-04-03T05:58:28;96657.41;;;24.25
50206;BMP280;36098;48.390;10.856;2023-04-03T06:00:54;96660.56;;;24.27
50206;BMP280;36098;48.390;10.856;2023-04-03T06:03:19;96671.91;;;24.18
50206;BMP280;36098;48.390;10.856;2023-04-03T06:05:44;96670.56;;;24.15
50206;BMP280;36098;48.390;10.856;2023-04-03T06:08:11;96667.41;;;24.13
50206;BMP280;36098;48.390;10.856;2023-04-03T06:10:37;96667.94;;;24.10
50206;BMP280;36098;48.390;10.856;2023-04-03T06:13:02;96667.69;;;24.07
50206;BMP280;36098;48.390;10.856;2023-04-03T06:15:28;96668.75;;;24.06
50206;BMP280;36098;48.390;10.856;2023-04-03T06:17:53;96665.81;;;24.02
50206;BMP280;36098;48.390;10.856;2023-04-03T06:20:18;96665.28;;;24.00
50206;BMP280;36098;48.390;10.856;2023-04-03T06:22:43;96671.63;;;24.04
50206;BMP280;36098;48.390;10.856;2023-04-03T06:25:08;96676.91;;;24.09
50206;BMP280;36098;48.390;10.856;2023-04-03T06:27:35;96672.75;;;24.53
50206;BMP280;36098;48.390;10.856;2023-04-03T06:30:00;96667.22;;;24.60
50206;BMP280;36098;48.390;10.856;2023-04-03T06:32:25;96671.69;;;24.74
50206;BMP280;36098;48.390;10.856;2023-04-03T06:34:51;96670.09;;;24.68
50206;BMP280;36098;48.390;10.856;2023-04-03T06:37:19;96677.50;;;24.66
50206;BMP280;36098;48.390;10.856;2023-04-03T06:39:45;96680.13;;;24.71
50206;BMP280;36098;48.390;10.856;2023-04-03T06:42:10;96679.09;;;24.67
50206;BMP280;36098;48.390;10.856;2023-04-03T06:44:36;96676.47;;;24.57
50206;BMP280;36098;48.390;10.856;2023-04-03T06:47:01;96672.75;;;24.53
50206;BMP280;36098;48.390;10.856;2023-04-03T06:49:26;96679.06;;;24.37
50206;BMP280;36098;48.390;10.856;2023-04-03T06:51:51;96675.34;;;24.33
50206;BMP280;36098;48.390;10.856;2023-04-03T06:54:16;96678.25;;;24.22
50206;BMP280;36098;48.390;10.856;2023-04-03T06:56:42;96680.34;;;24.25
50206;BMP280;36098;48.390;10.856;2023-04-03T06:59:07;96683.53;;;24.37
50206;BMP280;36098;48.390;10.856;2023-04-03T07:01:33;96682.75;;;24.46
50206;BMP280;36098;48.390;10.856;2023-04-03T07:03:58;96685.13;;;24.38
50206;BMP280;36098;48.390;10.856;2023-04-03T07:06:23;96689.53;;;23.87
50206;BMP280;36098;48.390;10.856;2023-04-03T07:08:51;96692.06;;;23.72
50206;BMP280;36098;48.390;10.856;2023-04-03T07:11:16;96694.19;;;23.70
50206;BMP280;36098;48.390;10.856;2023-04-03T07:13:42;96697.88;;;23.74
50206;BMP280;36098;48.390;10.856;2023-04-03T07:16:07;96695.28;;;23.79
50206;BMP280;36098;48.390;10.856;2023-04-03T07:18:33;96707.66;;;23.69
50206;BMP280;36098;48.390;10.856;2023-04-03T07:20:58;96707.78;;;23.42
50206;BMP280;36098;48.390;10.856;2023-04-03T07:23:24;96712.56;;;23.50
50206;BMP280;36098;48.390;10.856;2023-04-03T07:25:49;96709.69;;;23.57
50206;BMP280;36098;48.390;10.856;2023-04-03T07:28:16;96718.72;;;23.76
50206;BMP280;36098;48.390;10.856;2023-04-03T07:30:42;96716.34;;;23.69
50206;BMP280;36098;48.390;10.856;2023-04-03T07:33:07;96719.50;;;23.66
50206;BMP280;36098;48.390;10.856;2023-04-03T07:35:32;96721.59;;;23.64
50206;BMP280;36098;48.390;10.856;2023-04-03T07:37:57;96725.00;;;23.60
50206;BMP280;36098;48.390;10.856;2023-04-03T07:40:23;96726.03;;;23.54
50206;BMP280;36098;48.390;10.856;2023-04-03T07:42:48;96726.75;;;23.96
50206;BMP280;36098;48.390;10.856;2023-04-03T07:45:13;96728.97;;;23.62
50206;BMP280;36098;48.390;10.856;2023-04-03T07:47:38;96728.91;;;23.52
50206;BMP280;36098;48.390;10.856;2023-04-03T07:50:04;96731.03;;;23.55
50206;BMP280;36098;48.390;10.856;2023-04-03T07:52:29;96729.44;;;23.54
50206;BMP280;36098;48.390;10.856;2023-04-03T07:54:55;96736.59;;;23.59
50206;BMP280;36098;48.390;10.856;2023-04-03T07:57:20;96733.19;;;23.58
50206;BMP280;36098;48.390;10.856;2023-04-03T07:59:45;96728.69;;;23.59
50206;BMP280;36098;48.390;10.856;2023-04-03T08:02:11;96738.69;;;23.57
50206;BMP280;36098;48.390;10.856;2023-04-03T08:04:36;96739.75;;;23.56
50206;BMP280;36098;48.390;10.856;2023-04-03T08:07:01;96734.47;;;23.56
50206;BMP280;36098;48.390;10.856;2023-04-03T08:09:26;96734.22;;;23.57
50206;BMP280;36098;48.390;10.856;2023-04-03T08:11:52;96737.13;;;23.61
50206;BMP280;36098;48.390;10.856;2023-04-03T08:14:18;96738.56;;;23.83
50206;BMP280;36098;48.390;10.856;2023-04-03T08:16:45;96741.94;;;23.74
50206;BMP280;36098;48.390;10.856;2023-04-03T08:19:10;96743.97;;;23.62
50206;BMP280;36098;48.390;10.856;2023-04-03T08:21:40;96734.66;;;23.96
50206;BMP280;36098;48.390;10.856;2023-04-03T08:24:06;96741.84;;;24.20
50206;BMP280;36098;48.390;10.856;2023-04-03T08:26:31;96737.94;;;24.33
50206;BMP280;36098;48.390;10.856;2023-04-03T08:28:57;96741.06;;;24.25
50206;BMP280;36098;48.390;10.856;2023-04-03T08:31:22;96737.19;;;24.57
50206;BMP280;36098;48.390;10.856;2023-04-03T08:33:48;96732.41;;;24.54
50206;BMP280;36098;48.390;10.856;2023-04-03T08:36:18;96738.97;;;24.37
50206;BMP280;36098;48.390;10.856;2023-04-03T08:38:44;96736.63;;;24.40
50206;BMP280;36098;48.390;10.856;2023-04-03T08:41:20;96740.91;;;24.56
50206;BMP280;36098;48.390;10.856;2023-04-03T08:44:03;96743.72;;;24.45
50206;BMP280;36098;48.390;10.856;2023-04-03T08:46:41;96746.13;;;24.36
50206;BMP280;36098;48.390;10.856;2023-04-03T08:49:10;96742.16;;;24.44
50206;BMP280;36098;48.390;10.856;2023-04-03T08:51:39;96739.25;;;24.35
50206;BMP280;36098;48.390;10.856;2023-04-03T08:54:12;96743.72;;;24.45
50206;BMP280;36098;48.390;10.856;2023-04-03T08:56:40;96751.94;;;24.43
50206;BMP280;36098;48.390;10.856;2023-04-03T08:59:13;96739.75;;;24.22
50206;BMP280;36098;48.390;10.856;2023-04-03T09:01:42;96751.25;;;23.86
50206;BMP280;36098;48.390;10.856;2023-04-03T09:04:12;96753.34;;;23.84
50206;BMP280;36098;48.390;10.856;2023-04-03T09:06:37;96739.84;;;23.76
50206;BMP280;36098;48.390;10.856;2023-04-03T09:11:36;96756.41;;;23.66
50206;BMP280;36098;48.390;10.856;2023-04-03T09:21:56;96753.22;;;23.64
50206;BMP280;36098;48.390;10.856;2023-04-03T09:24:21;96758.44;;;23.54
50206;BMP280;36098;48.390;10.856;2023-04-03T09:26:52;96752.19;;;23.65
50206;BMP280;36098;48.390;10.856;2023-04-03T09:29:19;96753.78;;;23.71
50206;BMP280;36098;48.390;10.856;2023-04-03T09:31:46;96749.44;;;24.02
50206;BMP280;36098;48.390;10.856;2023-04-03T09:34:18;96756.81;;;23.90
50206;BMP280;36098;48.390;10.856;2023-04-03T09:39:12;96755.75;;;23.39
50206;BMP280;36098;48.390;10.856;2023-04-03T09:41:37;96741.50;;;23.40
50206;BMP280;36098;48.390;10.856;2023-04-03T09:44:03;96750.50;;;23.44
50206;BMP280;36098;48.390;10.856;2023-04-03T09:46:42;96747.34;;;23.47
50206;BMP280;36098;48.390;10.856;2023-04-03T09:49:08;96746.56;;;23.47
50206;BMP280;36098;48.390;10.856;2023-04-03T09:51:36;96754.72;;;23.45
50206;BMP280;36098;48.390;10.856;2023-04-03T09:54:02;96751.03;;;23.46
50206;BMP280;36098;48.390;10.856;2023-04-03T09:56:50;96750.78;;;23.48
50206;BMP280;36098;48.390;10.856;2023-04-03T09:59:16;96752.06;;;23.45
50206;BMP280;36098;48.390;10.856;2023-04-03T10:01:42;96754.25;;;23.58
50206;BMP280;36098;48.390;10.856;2023-04-03T10:06:37;96757.91;;;23.52
50206;BMP280;36098;48.390;10.856;2023-04-03T10:09:12;96747.44;;;23.62
50206;BMP280;36098;48.390;10.856;2023-04-03T10:11:44;96750.97;;;23.83
50206;BMP280;36098;48.390;10.856;2023-04-03T10:14:21;96735.53;;;24.26
50206;BMP280;36098;48.390;10.856;2023-04-03T10:17:35;96734.22;;;24.29
50206;BMP280;36098;48.390;10.856;2023-04-03T10:19:42;96728.75;;;24.65
50206;BMP280;36098;48.390;10.856;2023-04-03T10:22:12;96735.59;;;24.71
50206;BMP280;36098;48.390;10.856;2023-04-03T10:25:00;96726.03;;;24.30
50206;BMP280;36098;48.390;10.856;2023-04-03T10:27:30;96734.97;;;24.09
50206;BMP280;36098;48.390;10.856;2023-04-03T10:30:00;96744.41;;;23.95
50206;BMP280;36098;48.390;10.856;2023-04-03T10:40:20;96741.88;;;23.64
50206;BMP280;36098;48.390;10.856;2023-04-03T10:42:54;96738.66;;;23.47
50206;BMP280;36098;48.390;10.856;2023-04-03T10:45:26;96740.59;;;23.66
50206;BMP280;36098;48.390;10.856;2023-04-03T10:47:55;96744.41;;;23.90
50206;BMP280;36098;48.390;10.856;2023-04-03T10:52:56;96737.06;;;24.02
50206;BMP280;36098;48.390;10.856;2023-04-03T10:57:50;96743.91;;;23.98
50206;BMP280;36098;48.390;10.856;2023-04-03T11:00:21;96747.03;;;23.90
50206;BMP280;36098;48.390;10.856;2023-04-03T11:02:57;96740.53;;;24.23
50206;BMP280;36098;48.390;10.856;2023-04-03T11:07:59;96730.78;;;24.23
50206;BMP280;36098;48.390;10.856;2023-04-03T11:10:35;96738.69;;;24.18
50206;BMP280;36098;48.390;10.856;2023-04-03T11:13:02;96736.59;;;24.20
50206;BMP280;36098;48.390;10.856;2023-04-03T11:15:31;96736.00;;;24.03
50206;BMP280;36098;48.390;10.856;2023-04-03T11:17:59;96737.53;;;23.94
50206;BMP280;36098;48.390;10.856;2023-04-03T11:22:54;96730.63;;;23.78
50206;BMP280;36098;48.390;10.856;2023-04-03T11:25:24;96728.16;;;23.57
50206;BMP280;36098;48.390;10.856;2023-04-03T11:30:19;96733.63;;;23.45
50206;BMP280;36098;48.390;10.856;2023-04-03T11:35:13;96728.44;;;23.60
50206;BMP280;36098;48.390;10.856;2023-04-03T11:37:40;96721.06;;;23.67
50206;BMP280;36098;48.390;10.856;2023-04-03T11:40:19;96721.75;;;24.04
50206;BMP280;36098;48.390;10.856;2023-04-03T11:42:47;96716.25;;;24.16
50206;BMP280;36098;48.390;10.856;2023-04-03T11:47:43;96723.69;;;23.62
50206;BMP280;36098;48.390;10.856;2023-04-03T11:50:30;96713.25;;;23.87
50206;BMP280;36098;48.390;10.856;2023-04-03T11:52:56;96716.00;;;24.22
50206;BMP280;36098;48.390;10.856;2023-04-03T12:05:55;96706.53;;;24.51
50206;BMP280;36098;48.390;10.856;2023-04-03T12:08:25;96702.34;;;24.60
50206;BMP280;36098;48.390;10.856;2023-04-03T12:16:04;96708.06;;;24.22
50206;BMP280;36098;48.390;10.856;2023-04-03T12:21:13;96699.19;;;24.58
50206;BMP280;36098;48.390;10.856;2023-04-03T12:26:27;96690.63;;;23.96
50206;BMP280;36098;48.390;10.856;2023-04-03T12:28:53;96694.34;;;24.20
50206;BMP280;36098;48.390;10.856;2023-04-03T12:31:19;96688.81;;;24.12
50206;BMP280;36098;48.390;10.856;2023-04-03T12:36:18;96685.34;;;24.11
50206;BMP280;36098;48.390;10.856;2023-04-03T12:38:55;96685.88;;;24.08
50206;BMP280;36098;48.390;10.856;2023-04-03T12:46:18;96679.41;;;23.69
50206;BMP280;36098;48.390;10.856;2023-04-03T12:48:53;96668.38;;;23.77
50206;BMP280;36098;48.390;10.856;2023-04-03T12:51:28;96667.56;;;23.67
50206;BMP280;36098;48.390;10.856;2023-04-03T12:54:02;96665.41;;;23.54
50206;BMP280;36098;48.390;10.856;2023-04-03T12:56:29;96664.06;;;23.51
50206;BMP280;36098;48.390;10.856;2023-04-03T12:58:56;96662.25;;;23.57
50206;BMP280;36098;48.390;10.856;2023-04-03T13:01:37;96664.69;;;23.78
50206;BMP280;36098;48.390;10.856;2023-04-03T13:04:02;96653.88;;;23.80
50206;BMP280;36098;48.390;10.856;2023-04-03T13:06:34;96662.88;;;23.84
50206;BMP280;36098;48.390;10.856;2023-04-03T13:09:02;96657.03;;;23.77
50206;BMP280;36098;48.390;10.856;2023-04-03T13:11:33;96656.44;;;23.65
50206;BMP280;36098;48.390;10.856;2023-04-03T13:14:01;96662.53;;;23.70
50206;BMP280;36098;48.390;10.856;2023-04-03T13:16:28;96670.88;;;23.37
50206;BMP280;36098;48.390;10.856;2023-04-03T13:18:54;96675.63;;;23.45
50206;BMP280;36098;48.390;10.856;2023-04-03T13:21:21;96672.19;;;23.45
50206;BMP280;36098;48.390;10.856;2023-04-03T13:23:48;96662.47;;;23.50
50206;BMP280;36098;48.390;10.856;2023-04-03T13:26:15;96663.78;;;23.48
50206;BMP280;36098;48.390;10.856;2023-04-03T13:28:41;96659.91;;;23.65
50206;BMP280;36098;48.390;10.856;2023-04-03T13:34:04;96677.22;;;23.46
50206;BMP280;36098;48.390;10.856;2023-04-03T13:36:31;96678.34;;;23.65
50206;BMP280;36098;48.390;10.856;2023-04-03T13:39:00;96677.22;;;23.46
50206;BMP280;36098;48.390;10.856;2023-04-03T13:41:35;96669.31;;;23.51
50206;BMP280;36098;48.390;10.856;2023-04-03T13:46:41;96658.53;;;23.53
50206;BMP280;36098;48.390;10.856;2023-04-03T13:49:58;96658.25;;;23.54
50206;BMP280;36098;48.390;10.856;2023-04-03T13:51:55;96652.56;;;23.77
50206;BMP280;36098;48.390;10.856;2023-04-03T13:56:53;96660.88;;;23.39
50206;BMP280;36098;48.390;10.856;2023-04-03T13:59:21;96650.84;;;23.46
50206;BMP280;36098;48.390;10.856;2023-04-03T14:01:54;96649.88;;;23.72
50206;BMP280;36098;48.390;10.856;2023-04-03T14:04:24;96640.66;;;23.70
50206;BMP280;36098;48.390;10.856;2023-04-03T14:06:50;96641.19;;;23.77
50206;BMP280;36098;48.390;10.856;2023-04-03T14:09:17;96633.13;;;24.03
50206;BMP280;36098;48.390;10.856;2023-04-03T14:11:42;96636.25;;;23.90
50206;BMP280;36098;48.390;10.856;2023-04-03T14:14:18;96632.06;;;24.04
50206;BMP280;36098;48.390;10.856;2023-04-03T14:16:46;96635.75;;;24.28
50206;BMP280;36098;48.390;10.856;2023-04-03T14:19:14;96637.88;;;24.06
50206;BMP280;36098;48.390;10.856;2023-04-03T14:21:41;96633.59;;;23.85
50206;BMP280;36098;48.390;10.856;2023-04-03T14:24:06;96643.84;;;23.72
50206;BMP280;36098;48.390;10.856;2023-04-03T14:26:32;96632.03;;;23.89
50206;BMP280;36098;48.390;10.856;2023-04-03T14:28:57;96641.56;;;24.10
50206;BMP280;36098;48.390;10.856;2023-04-03T14:31:22;96632.06;;;24.19
50206;BMP280;36098;48.390;10.856;2023-04-03T14:33:47;96635.75;;;24.13
50206;BMP280;36098;48.390;10.856;2023-04-03T14:36:17;96630.47;;;24.28
50206;BMP280;36098;48.390;10.856;2023-04-03T14:38:43;96636.81;;;24.22
50206;BMP280;36098;48.390;10.856;2023-04-03T14:41:12;96631.28;;;24.19
50206;BMP280;36098;48.390;10.856;2023-04-03T14:43:38;96631.03;;;24.20
50206;BMP280;36098;48.390;10.856;2023-04-03T14:46:04;96627.31;;;24.01
50206;BMP280;36098;48.390;10.856;2023-04-03T14:48:29;96639.94;;;23.84
50206;BMP280;36098;48.390;10.856;2023-04-03T14:50:55;96635.50;;;24.10
50206;BMP280;36098;48.390;10.856;2023-04-03T14:53:20;96631.00;;;24.15
50206;BMP280;36098;48.390;10.856;2023-04-03T14:55:51;96635.19;;;23.86
50206;BMP280;36098;48.390;10.856;2023-04-03T14:58:17;96631.41;;;23.67
50206;BMP280;36098;48.390;10.856;2023-04-03T15:00:43;96625.91;;;23.74
50206;BMP280;36098;48.390;10.856;2023-04-03T15:03:12;96626.75;;;23.84
50206;BMP280;36098;48.390;10.856;2023-04-03T15:05:38;96622.03;;;24.11
50206;BMP280;36098;48.390;10.856;2023-04-03T15:08:03;96617.81;;;24.05
50206;BMP280;36098;48.390;10.856;2023-04-03T15:10:29;96619.13;;;24.43
50206;BMP280;36098;48.390;10.856;2023-04-03T15:12:55;96621.50;;;24.49
50206;BMP280;36098;48.390;10.856;2023-04-03T15:15:21;96627.34;;;24.66
50206;BMP280;36098;48.390;10.856;2023-04-03T15:17:47;96622.81;;;24.42